»·PEaware :: N129DQ KRDD-KMFR

N129DQ :: KRDD-KMFR

FLIGHT INFORMATION

Flight Status: Arrived
Operator: Privately registered:
United States
More flights under this callsign
Pilot: Doug M. (13043)
Aircraft: MOONEY M-20K/M ENCORE BRAVO
(M20T)
More flights by this aircraft type
Origin: KRDD Redding Mun
United States
Destination: KMFR Rogue Valley Intl-Medford
United States
More flights between these airports :: More routes between these airports
Route: FJS
File this flight plan on PilotEdge
Remarks:
Altitude:
(Current/Filed)
10,500ft
Speed:
(Current/Filed)
180kts
Departed: 02-Sep-18 01:38 PM
Arrived: 02-Sep-18 02:18 PM
Distance/Time
Traveled:
115nm/0:40
Distance/Time
To Go:
Arrived

Flight Plot

Page will automatically refresh every two minutes.

Flight plan parsing failed; only flown route is shown


Map Options




Map Legend


Flown Route
Filed Route
Departure Airport
Arrival Airport
Navaid (VOR, NDB)
Fix

Horizontal Profiles

Position Reports

Time Latitude Longitude Heading Altitude Ground
Speed
02-Sep-18 13:33 40.508631 -122.298003 179 493ft 0kts
02-Sep-18 13:34 40.508076 -122.298447 207 493ft 18kts
02-Sep-18 13:35 40.503393 -122.297844 129 493ft 0kts
02-Sep-18 13:36 40.501846 -122.295847 134 493ft 0kts
02-Sep-18 13:37 40.501846 -122.295847 134 493ft 0kts
02-Sep-18 13:38 40.501611 -122.294915 13 493ft 12kts
02-Sep-18 13:39 40.530432 -122.297275 354 763ft 156kts
02-Sep-18 13:40 40.574338 -122.304321 354 2066ft 158kts
02-Sep-18 13:41 40.617244 -122.311045 354 3462ft 155kts
02-Sep-18 13:42 40.659552 -122.317324 354 4858ft 153kts
02-Sep-18 13:43 40.701732 -122.323075 354 6254ft 153kts
02-Sep-18 13:44 40.744156 -122.322795 2 7649ft 154kts
02-Sep-18 13:45 40.788836 -122.319481 2 8501ft 184kts
02-Sep-18 13:46 40.844102 -122.315129 2 8727ft 199kts
02-Sep-18 13:47 40.897009 -122.310772 2 9715ft 187kts
02-Sep-18 13:48 40.948638 -122.306481 2 10494ft 196kts
02-Sep-18 13:49 41.005419 -122.301725 2 10716ft 208kts
02-Sep-18 13:50 41.063760 -122.296822 3 10728ft 215kts
02-Sep-18 13:51 41.121865 -122.291915 3 10728ft 216kts
02-Sep-18 13:52 41.181046 -122.286895 3 10728ft 216kts
02-Sep-18 13:53 41.237124 -122.308155 334 10728ft 215kts
02-Sep-18 13:54 41.291372 -122.341787 334 10728ft 215kts
02-Sep-18 13:55 41.345751 -122.375365 334 10728ft 216kts
02-Sep-18 13:56 41.400200 -122.409082 334 10728ft 217kts
02-Sep-18 13:57 41.454456 -122.442969 334 10728ft 218kts
02-Sep-18 13:58 41.510411 -122.474279 341 10728ft 219kts
02-Sep-18 13:59 41.567994 -122.499657 341 10661ft 218kts
02-Sep-18 14:00 41.625637 -122.525088 341 10193ft 217kts
02-Sep-18 14:01 41.682142 -122.550205 341 9747ft 216kts
02-Sep-18 14:02 41.739131 -122.575610 341 9315ft 215kts
02-Sep-18 14:03 41.795164 -122.600742 341 8836ft 212kts
02-Sep-18 14:04 41.850287 -122.625746 341 8500ft 203kts
02-Sep-18 14:05 41.902668 -122.649582 341 8500ft 195kts
02-Sep-18 14:06 41.952797 -122.672407 341 8500ft 194kts
02-Sep-18 14:07 42.004529 -122.695987 341 8500ft 202kts
02-Sep-18 14:08 42.058409 -122.720531 341 8488ft 206kts
02-Sep-18 14:09 42.111917 -122.744870 341 8075ft 205kts
02-Sep-18 14:10 42.165490 -122.747784 14 6631ft 199kts
02-Sep-18 14:11 42.218043 -122.730141 14 5204ft 194kts
02-Sep-18 14:12 42.254745 -122.760718 283 3763ft 193kts
02-Sep-18 14:13 42.259776 -122.829280 309 2490ft 181kts
02-Sep-18 14:14 42.300202 -122.853020 350 2451ft 152kts
02-Sep-18 14:15 42.341298 -122.845298 6 2469ft 149kts
02-Sep-18 14:16 42.381712 -122.858964 339 2296ft 149kts
02-Sep-18 14:17 42.411888 -122.879116 298 2009ft 115kts
02-Sep-18 14:18 42.392780 -122.882779 152 1542ft 99kts
02-Sep-18 14:19 42.376236 -122.874409 265 1317ft 13kts
02-Sep-18 14:20 42.376152 -122.875030 248 1317ft 10kts
02-Sep-18 14:21 42.375023 -122.878287 291 1317ft 3kts
02-Sep-18 14:22 42.375043 -122.878349 293 1317ft 0kts
02-Sep-18 14:23 42.375043 -122.878349 293 1317ft 0kts
02-Sep-18 14:24 42.375043 -122.878349 293 1317ft 0kts
02-Sep-18 14:25 42.375043 -122.878349 293 1317ft 0kts
02-Sep-18 14:26 42.375043 -122.878349 293 1317ft 0kts
02-Sep-18 14:27 42.375043 -122.878349 293 1317ft 0kts

Navigation Log

Ident Type
Flight plan parsing failed, navigation log unavailable